createdAt,value
2018-04-08T00:00:30.608Z,161880.58
2018-04-08T00:02:58.159Z,161867.44
2018-04-08T00:05:25.751Z,161818.34
2018-04-08T00:07:53.342Z,161820.31
2018-04-08T00:10:20.892Z,161893.67
2018-04-08T00:12:48.464Z,161832.09
2018-04-08T00:15:16.006Z,161796.75
2018-04-08T00:17:43.575Z,161777.75
2018-04-08T00:20:11.174Z,161832.75
2018-04-08T00:22:38.772Z,161934.25
2018-04-08T00:25:06.333Z,161957.16
2018-04-08T00:27:33.898Z,161832.75
2018-04-08T00:30:01.537Z,161750.92
2018-04-08T00:32:29.080Z,161719.50
2018-04-08T00:34:56.624Z,161680.89
2018-04-08T00:37:24.197Z,161654.08
2018-04-08T00:39:51.749Z,161619.41
2018-04-08T00:42:19.333Z,161614.84
2018-04-08T00:44:46.896Z,161650.83
2018-04-08T00:47:14.467Z,161689.42
2018-04-08T00:49:42.023Z,161714.28
2018-04-08T00:52:09.587Z,161686.81
2018-04-08T00:54:37.139Z,161815.05
2018-04-08T00:57:05.057Z,161831.44
2018-04-08T00:59:32.622Z,161813.73
2018-04-08T01:02:00.159Z,161720.84
2018-04-08T01:04:27.748Z,161677.64
2018-04-08T01:06:55.312Z,161735.23
2018-04-08T01:09:22.860Z,161642.31
2018-04-08T01:11:50.472Z,161580.81
2018-04-08T01:14:18.021Z,161536.97
2018-04-08T01:16:45.564Z,161506.91
2018-04-08T01:19:13.118Z,161536.33
2018-04-08T01:21:40.668Z,161528.50
2018-04-08T01:24:08.249Z,161651.48
2018-04-08T01:26:35.810Z,161738.48
2018-04-08T01:29:03.414Z,161682.20
2018-04-08T01:31:30.969Z,161669.77
2018-04-08T01:33:58.506Z,161590.64
2018-04-08T01:36:26.098Z,161544.84
2018-04-08T01:38:53.671Z,161489.94
2018-04-08T01:41:21.372Z,161453.27
2018-04-08T01:43:48.913Z,161460.42
2018-04-08T01:46:16.504Z,161421.20
2018-04-08T01:48:44.056Z,161415.30
2018-04-08T01:51:11.609Z,161487.94
2018-04-08T01:53:39.221Z,161460.42
2018-04-08T01:56:06.777Z,161429.72
2018-04-08T01:58:34.328Z,161424.47
2018-04-08T02:01:01.938Z,161501.00
2018-04-08T02:03:29.518Z,161487.94
2018-04-08T02:05:57.055Z,161440.14
2018-04-08T02:08:24.663Z,161489.94
2018-04-08T02:10:52.208Z,161463.03
2018-04-08T02:13:19.745Z,161428.38
2018-04-08T02:15:47.304Z,161428.38
2018-04-08T02:18:14.857Z,161456.52
2018-04-08T02:20:42.465Z,161587.38
2018-04-08T02:23:10.011Z,161547.45
2018-04-08T02:25:37.580Z,161572.30
2018-04-08T02:28:05.190Z,161519.98
2018-04-08T02:30:32.737Z,161504.31
2018-04-08T02:33:00.347Z,161446.05
2018-04-08T02:35:27.897Z,161453.27
2018-04-08T02:37:55.434Z,161518.69
2018-04-08T02:40:23.040Z,161453.27
2018-04-08T02:42:50.588Z,161425.11
2018-04-08T02:45:18.129Z,161523.91
2018-04-08T02:47:45.710Z,161534.37
2018-04-08T02:50:13.255Z,161430.38
2018-04-08T02:52:40.829Z,161378.69
2018-04-08T02:55:08.392Z,161389.16
2018-04-08T02:57:35.997Z,161376.73
2018-04-08T03:00:03.558Z,161403.53
2018-04-08T03:02:31.113Z,161452.56
2018-04-08T03:04:58.674Z,161429.72
2018-04-08T03:07:26.231Z,161473.55
2018-04-08T03:09:53.789Z,161585.38
2018-04-08T03:12:21.418Z,161538.33
2018-04-08T03:14:48.984Z,161455.22
2018-04-08T03:17:16.615Z,161402.22
2018-04-08T03:19:44.192Z,161363.66
2018-04-08T03:22:11.752Z,161335.56
2018-04-08T03:24:39.291Z,161313.98
2018-04-08T03:27:07.263Z,161317.23
2018-04-08T03:29:34.815Z,161352.55
2018-04-08T03:32:02.363Z,161474.84
2018-04-08T03:34:29.961Z,161468.28
2018-04-08T03:36:57.520Z,161419.91
2018-04-08T03:39:25.083Z,161451.91
2018-04-08T03:41:52.642Z,161408.78
2018-04-08T03:44:20.196Z,161406.83
2018-04-08T03:46:47.759Z,161477.50
2018-04-08T03:49:15.309Z,161459.78
2018-04-08T03:51:42.886Z,161432.33
2018-04-08T03:54:10.507Z,161424.47
2018-04-08T03:56:38.069Z,161443.44
2018-04-08T03:59:05.622Z,161442.80
2018-04-08T04:01:33.204Z,161362.36
2018-04-08T04:04:00.760Z,161316.59
2018-04-08T04:06:28.374Z,161268.22
2018-04-08T04:08:55.915Z,161253.20
2018-04-08T04:11:23.455Z,161239.47
2018-04-08T04:13:51.045Z,161219.86
2018-04-08T04:16:18.609Z,161186.56
2018-04-08T04:18:58.029Z,161196.33
2018-04-08T04:21:37.473Z,161272.83
2018-04-08T04:27:09.302Z,161229.02
2018-04-08T04:29:36.923Z,161228.36
2018-04-08T04:32:04.476Z,161248.64
2018-04-08T04:34:32.032Z,161295.06
2018-04-08T04:36:59.652Z,161229.02
2018-04-08T04:39:27.197Z,161170.84
2018-04-08T04:41:54.752Z,161144.06
2018-04-08T04:44:22.658Z,161139.52
2018-04-08T04:46:50.208Z,161159.73
2018-04-08T04:49:17.756Z,161176.09
2018-04-08T04:51:45.319Z,161157.13
2018-04-08T04:54:12.894Z,161150.63
2018-04-08T04:56:40.442Z,161284.59
2018-04-08T04:59:08.086Z,161239.47
2018-04-08T05:01:35.639Z,161208.09
2018-04-08T05:04:03.203Z,161192.42
2018-04-08T05:06:30.781Z,161168.91
2018-04-08T05:08:58.334Z,161263.00
2018-04-08T05:11:25.947Z,161321.84
2018-04-08T05:13:53.531Z,161357.80
2018-04-08T05:16:21.076Z,161404.22
2018-04-08T05:18:48.647Z,161326.41
2018-04-08T05:21:16.192Z,161319.89
2018-04-08T05:23:43.760Z,161438.84
2018-04-08T05:26:11.329Z,161569.69
2018-04-08T05:28:39.288Z,161518.69
2018-04-08T05:31:06.832Z,161525.91
2018-04-08T05:33:34.394Z,161536.33
2018-04-08T05:36:01.976Z,161593.25
2018-04-08T05:38:29.531Z,161670.42
2018-04-08T05:40:57.127Z,161771.22
2018-04-08T05:43:24.693Z,161811.78
2018-04-08T05:45:52.259Z,161794.78
2018-04-08T05:48:19.812Z,161838.61
2018-04-08T05:50:47.390Z,161737.19
2018-04-08T05:53:14.983Z,161745.00
2018-04-08T05:55:42.542Z,161746.36
2018-04-08T05:58:10.074Z,161790.17
2018-04-08T06:00:37.672Z,161857.61
2018-04-08T06:03:05.243Z,161907.41
2018-04-08T06:05:32.796Z,161896.92
2018-04-08T06:08:00.390Z,161818.34
2018-04-08T06:10:27.953Z,161752.88
2018-04-08T06:12:55.516Z,161830.09
2018-04-08T06:15:23.072Z,161885.80
2018-04-08T06:17:50.602Z,161929.67
2018-04-08T06:20:18.211Z,162021.31
2018-04-08T06:22:45.765Z,162135.31
2018-04-08T06:25:13.325Z,162159.48
2018-04-08T06:27:41.263Z,162089.44
2018-04-08T06:30:08.836Z,162065.86
2018-04-08T06:32:36.395Z,162097.92
2018-04-08T06:35:04.002Z,162124.81
2018-04-08T06:37:31.566Z,162158.19
2018-04-08T06:39:59.149Z,162199.48
2018-04-08T06:42:26.737Z,162248.67
2018-04-08T06:44:54.593Z,162213.23
2018-04-08T06:47:22.204Z,162186.39
2018-04-08T06:49:49.806Z,162188.34
2018-04-08T06:52:17.365Z,162236.83
2018-04-08T06:54:44.926Z,162221.13
2018-04-08T06:57:12.865Z,162205.36
2018-04-08T06:59:40.467Z,162293.20
2018-04-08T07:02:08.002Z,162381.70
2018-04-08T07:04:36.134Z,162405.31
2018-04-08T07:07:03.679Z,162442.67
2018-04-08T07:09:31.249Z,162338.42
2018-04-08T07:11:58.830Z,162403.30
2018-04-08T07:14:26.395Z,162486.56
2018-04-08T07:16:54.036Z,162551.50
2018-04-08T07:19:21.597Z,162558.69
2018-04-08T07:21:49.144Z,162490.52
2018-04-08T07:24:16.720Z,162532.47
2018-04-08T07:26:44.311Z,162445.28
2018-04-08T07:29:11.851Z,162445.92
2018-04-08T07:31:39.424Z,162419.72
2018-04-08T07:34:07.376Z,162385.63
2018-04-08T07:36:34.918Z,162442.00
2018-04-08T07:39:02.480Z,162462.30
2018-04-08T07:41:30.092Z,162410.53
2018-04-08T07:43:57.673Z,162529.19
2018-04-08T07:46:25.269Z,162516.09
2018-04-08T07:48:52.851Z,162576.47
2018-04-08T07:51:20.400Z,162594.14
2018-04-08T07:53:47.997Z,162687.94
2018-04-08T07:56:15.580Z,162768.59
2018-04-08T07:58:43.175Z,162783.06
2018-04-08T08:01:10.800Z,162839.47
2018-04-08T08:03:38.351Z,162830.91
2018-04-08T08:06:05.901Z,163028.55
2018-04-08T08:08:33.473Z,163069.22
2018-04-08T08:11:01.019Z,163042.97
2018-04-08T08:13:28.587Z,163298.47
2018-04-08T08:15:56.135Z,163362.81
2018-04-08T08:18:23.866Z,163400.97
2018-04-08T08:20:51.402Z,163278.73
2018-04-08T08:23:18.958Z,163497.56
2018-04-08T08:25:46.579Z,163436.45
2018-04-08T08:28:14.124Z,163328.66
2018-04-08T08:30:41.658Z,163361.52
2018-04-08T08:33:09.260Z,163511.34
2018-04-08T08:35:36.849Z,163618.50
2018-04-08T08:38:04.435Z,163611.89
2018-04-08T08:40:31.996Z,163495.59
2018-04-08T08:42:59.563Z,163571.81
2018-04-08T08:45:27.132Z,163651.42
2018-04-08T08:47:54.699Z,163761.88
2018-04-08T08:50:22.285Z,163854.56
2018-04-08T08:52:49.840Z,163779.59
2018-04-08T08:55:17.428Z,163841.41
2018-04-08T08:57:44.977Z,163884.23
2018-04-08T09:00:12.548Z,163928.94
2018-04-08T09:02:40.102Z,163798.03
2018-04-08T09:05:07.680Z,163920.41
2018-04-08T09:07:35.236Z,163787.52
2018-04-08T09:10:02.863Z,163640.19
2018-04-08T09:12:30.413Z,163721.73
2018-04-08T09:14:57.958Z,163653.39
2018-04-08T09:17:25.598Z,163751.34
2018-04-08T09:23:00.508Z,163868.36
2018-04-08T09:25:28.596Z,163898.05
2018-04-08T09:27:56.127Z,163876.94
2018-04-08T09:30:23.678Z,163975.64
2018-04-08T09:32:51.219Z,164040.75
2018-04-08T09:35:18.860Z,164120.44
2018-04-08T09:37:46.407Z,164056.58
2018-04-08T09:40:13.948Z,164032.89
2018-04-08T09:42:41.593Z,163878.89
2018-04-08T09:45:09.188Z,163888.81
2018-04-08T09:47:36.756Z,164011.81
2018-04-08T09:50:04.319Z,163903.94
2018-04-08T09:52:31.901Z,163987.48
2018-04-08T09:54:59.475Z,164017.06
2018-04-08T09:57:30.047Z,164061.17
2018-04-08T09:59:57.605Z,163976.30
2018-04-08T10:05:29.275Z,164113.84
2018-04-08T10:07:56.870Z,164144.13
2018-04-08T10:10:24.420Z,164086.17
2018-04-08T10:12:51.985Z,164120.44
2018-04-08T10:15:19.595Z,164112.53
2018-04-08T10:17:47.148Z,164148.06
2018-04-08T10:20:14.694Z,164103.25
2018-04-08T10:22:42.278Z,164285.61
2018-04-08T10:25:09.840Z,164176.34
2018-04-08T10:27:37.411Z,164167.83
2018-04-08T10:30:04.961Z,164309.97
2018-04-08T10:32:32.536Z,164224.39
2018-04-08T10:35:00.169Z,164123.06
2018-04-08T10:37:27.728Z,164197.42
2018-04-08T10:39:55.327Z,164200.70
2018-04-08T10:42:22.881Z,164213.91
2018-04-08T10:44:50.450Z,164144.13
2018-04-08T10:47:18.068Z,164329.13
2018-04-08T10:49:45.612Z,164344.25
2018-04-08T10:52:13.163Z,164476.61
2018-04-08T10:54:40.731Z,164389.05
2018-04-08T10:57:08.672Z,164224.39
2018-04-08T10:59:36.233Z,164277.75
2018-04-08T11:02:03.784Z,164146.75
2018-04-08T11:04:31.356Z,164315.25
2018-04-08T11:06:58.891Z,164346.87
2018-04-08T11:09:26.464Z,164384.41
2018-04-08T11:11:54.020Z,164474.64
2018-04-08T11:14:21.601Z,164439.08
2018-04-08T11:16:49.159Z,164655.83
2018-04-08T11:19:16.743Z,164653.81
2018-04-08T11:21:44.289Z,164653.81
2018-04-08T11:24:11.840Z,164767.87
2018-04-08T11:26:39.404Z,164744.81
2018-04-08T11:29:06.981Z,164524.03
2018-04-08T11:31:34.594Z,164605.72
2018-04-08T11:34:02.122Z,164684.80
2018-04-08T11:36:29.679Z,164758.64
2018-04-08T11:38:57.272Z,164666.98
2018-04-08T11:41:24.830Z,164643.97
2018-04-08T11:43:52.396Z,164661.73
2018-04-08T11:46:19.968Z,164578.06
2018-04-08T11:48:47.516Z,164672.28
2018-04-08T11:51:15.101Z,164709.83
2018-04-08T11:53:42.648Z,164699.94
2018-04-08T11:56:10.217Z,164682.83
2018-04-08T11:58:37.812Z,164819.92
2018-04-08T12:01:05.425Z,164711.80
2018-04-08T12:03:33.005Z,164532.61
2018-04-08T12:06:00.585Z,164471.36
2018-04-08T12:08:28.118Z,164651.19
2018-04-08T12:10:55.664Z,164584.03
2018-04-08T12:13:23.236Z,164595.88
2018-04-08T12:15:50.851Z,164683.48
2018-04-08T12:18:18.405Z,164586.66
2018-04-08T12:20:45.993Z,164559.00
2018-04-08T12:23:13.582Z,164617.58
2018-04-08T12:25:41.151Z,164691.36
2018-04-08T12:28:09.089Z,164695.34
2018-04-08T12:30:36.635Z,164625.50
2018-04-08T12:33:04.226Z,164788.27
2018-04-08T12:35:31.801Z,164673.59
2018-04-08T12:37:59.353Z,164810.03
2018-04-08T12:40:26.940Z,164695.34
2018-04-08T12:42:54.496Z,164757.33
2018-04-08T12:45:22.034Z,164821.89
2018-04-08T12:47:49.607Z,165057.91
2018-04-08T12:50:17.178Z,165005.83
2018-04-08T12:52:44.792Z,165108.00
2018-04-08T12:55:12.365Z,164986.03
2018-04-08T12:57:39.928Z,165124.56
2018-04-08T13:00:07.521Z,164967.59
2018-04-08T13:02:35.067Z,165185.25
2018-04-08T13:05:02.993Z,165174.03
2018-04-08T13:07:30.548Z,164767.22
2018-04-08T13:09:58.098Z,165012.44
2018-04-08T13:12:25.680Z,165012.44
2018-04-08T13:14:53.251Z,165002.55
2018-04-08T13:17:20.810Z,165051.34
2018-04-08T13:19:48.360Z,165223.48
2018-04-08T13:22:15.949Z,164932.66
2018-04-08T13:24:43.506Z,164926.09
2018-04-08T13:27:11.069Z,164712.45
2018-04-08T13:29:38.644Z,164703.22
2018-04-08T13:32:06.209Z,164913.53
2018-04-08T13:34:33.812Z,164678.19
2018-04-08T13:37:01.369Z,164591.23
2018-04-08T13:39:28.925Z,164977.50
2018-04-08T13:41:56.488Z,164919.44
2018-04-08T13:44:24.097Z,164965.63
2018-04-08T13:46:51.641Z,165033.50
2018-04-08T13:49:19.180Z,165090.22
2018-04-08T13:51:46.774Z,165209.64
2018-04-08T13:54:14.321Z,165086.28
2018-04-08T13:56:41.874Z,165217.53
2018-04-08T13:59:09.480Z,165395.69
2018-04-08T14:01:37.044Z,165152.25
2018-04-08T14:04:04.584Z,165203.03
2018-04-08T14:06:32.150Z,165239.30
2018-04-08T14:08:59.764Z,165286.80
2018-04-08T14:11:27.326Z,165137.75
2018-04-08T14:13:54.863Z,165138.41
2018-04-08T14:16:22.445Z,164969.56
2018-04-08T14:18:49.983Z,164994.63
2018-04-08T14:21:17.576Z,164967.59
2018-04-08T14:23:45.132Z,165078.36
2018-04-08T14:26:12.688Z,165143.66
2018-04-08T14:28:40.288Z,164774.44
2018-04-08T14:31:07.835Z,164960.98
2018-04-08T14:33:35.389Z,164868.69
2018-04-08T14:36:02.985Z,164763.89
2018-04-08T14:38:30.548Z,164797.50
2018-04-08T14:40:58.590Z,164790.94
2018-04-08T14:43:26.149Z,164928.72
2018-04-08T14:45:53.687Z,164739.52
2018-04-08T14:48:21.286Z,164708.52
2018-04-08T14:50:48.838Z,164715.73
2018-04-08T14:53:16.405Z,164853.55
2018-04-08T14:55:43.994Z,164834.41
2018-04-08T14:58:11.552Z,164858.14
2018-04-08T15:00:39.208Z,164698.63
2018-04-08T15:03:06.790Z,164726.94
2018-04-08T15:05:34.353Z,164752.69
2018-04-08T15:08:01.936Z,164745.47
2018-04-08T15:10:29.504Z,164759.30
2018-04-08T15:12:57.089Z,164854.20
2018-04-08T15:15:24.648Z,164783.02
2018-04-08T15:17:52.228Z,164882.53
2018-04-08T15:20:19.775Z,164829.16
2018-04-08T15:22:47.342Z,164835.06
2018-04-08T15:25:14.934Z,164776.41
2018-04-08T15:27:42.470Z,164696.00
2018-04-08T15:30:10.019Z,164796.19
2018-04-08T15:32:37.589Z,164810.69
2018-04-08T15:35:05.141Z,164831.13
2018-04-08T15:37:32.742Z,164763.89
2018-04-08T15:40:00.288Z,164812.66
2018-04-08T15:42:27.879Z,164894.39
2018-04-08T15:44:55.465Z,164877.92
2018-04-08T15:47:22.998Z,165006.48
2018-04-08T15:49:50.554Z,164837.69
2018-04-08T15:52:18.139Z,164863.39
2018-04-08T15:54:45.685Z,165052.64
2018-04-08T15:57:13.288Z,165082.94
2018-04-08T15:59:40.833Z,165092.84
2018-04-08T16:02:08.394Z,165022.95
2018-04-08T16:04:36.112Z,164868.03
2018-04-08T16:07:03.674Z,165003.86
2018-04-08T16:09:31.240Z,164985.37
2018-04-08T16:11:58.807Z,165012.44
2018-04-08T16:14:26.360Z,164907.56
2018-04-08T16:16:53.974Z,164937.97
2018-04-08T16:19:21.543Z,164881.88
2018-04-08T16:21:49.124Z,164868.03
2018-04-08T16:24:16.698Z,164962.34
2018-04-08T16:26:44.266Z,164935.28
2018-04-08T16:29:11.824Z,164883.83
2018-04-08T16:31:39.382Z,164831.78
2018-04-08T16:34:06.956Z,164792.91
2018-04-08T16:36:34.539Z,164729.61
2018-04-08T16:39:02.093Z,164723.00
2018-04-08T16:41:29.663Z,164696.00
2018-04-08T16:43:57.235Z,164709.83
2018-04-08T16:46:24.809Z,164687.42
2018-04-08T16:48:52.362Z,164675.56
2018-04-08T16:51:19.929Z,164673.59
2018-04-08T16:53:47.577Z,164691.36
2018-04-08T16:56:15.131Z,164661.08
2018-04-08T16:58:42.712Z,164660.42
2018-04-08T17:01:10.265Z,164651.84
2018-04-08T17:03:37.831Z,164597.84
2018-04-08T17:06:05.390Z,164649.22
2018-04-08T17:08:32.984Z,164504.25
2018-04-08T17:11:00.529Z,164601.78
2018-04-08T17:13:28.132Z,164626.16
2018-04-08T17:15:56.072Z,164620.25
2018-04-08T17:18:23.612Z,164643.97
2018-04-08T17:20:51.162Z,164609.70
2018-04-08T17:23:18.779Z,164499.02
2018-04-08T17:25:46.343Z,164551.08
2018-04-08T17:28:13.905Z,164558.34
2018-04-08T17:30:41.506Z,164564.91
2018-04-08T17:33:09.059Z,164539.22
2018-04-08T17:35:36.600Z,164493.72
2018-04-08T17:38:04.155Z,164500.97
2018-04-08T17:40:31.700Z,164504.91
2018-04-08T17:42:59.308Z,164439.73
2018-04-08T17:45:26.923Z,164376.53
2018-04-08T17:47:54.482Z,164317.22
2018-04-08T17:50:22.061Z,164286.92
2018-04-08T17:52:49.615Z,164298.12
2018-04-08T17:55:17.208Z,164250.06
2018-04-08T17:57:44.829Z,164012.47
2018-04-08T18:00:12.370Z,163959.88
2018-04-08T18:02:39.923Z,163916.44
2018-04-08T18:05:07.500Z,163843.38
2018-04-08T18:07:35.043Z,163827.61
2018-04-08T18:10:02.654Z,163824.98
2018-04-08T18:12:30.216Z,163803.94
2018-04-08T18:14:57.762Z,163778.95
2018-04-08T18:17:25.352Z,163778.95
2018-04-08T18:19:52.887Z,163833.50
2018-04-08T18:22:20.869Z,163818.39
2018-04-08T18:24:48.436Z,163680.98
2018-04-08T18:27:15.981Z,163611.89
2018-04-08T18:29:43.562Z,163556.72
2018-04-08T18:32:11.100Z,163528.47
2018-04-08T18:34:38.648Z,163451.55
2018-04-08T18:37:06.339Z,163403.59
2018-04-08T18:39:33.885Z,163351.66
2018-04-08T18:42:02.019Z,163314.88
2018-04-08T18:44:29.940Z,163294.48
2018-04-08T18:46:57.488Z,163283.31
2018-04-08T18:49:25.029Z,163276.78
2018-04-08T18:51:52.591Z,163265.61
2018-04-08T18:54:20.163Z,163268.22
2018-04-08T18:56:47.726Z,163272.20
2018-04-08T18:59:15.277Z,163241.30
2018-04-08T19:01:42.849Z,163284.02
2018-04-08T19:04:10.378Z,163297.16
2018-04-08T19:06:37.968Z,163270.19
2018-04-08T19:09:06.295Z,163275.47
2018-04-08T19:11:33.836Z,163213.08
2018-04-08T19:14:01.769Z,163194.67
2018-04-08T19:16:29.310Z,163186.83
2018-04-08T19:18:56.853Z,163157.91
2018-04-08T19:21:24.429Z,163159.20
2018-04-08T19:23:51.958Z,163140.19
2018-04-08T19:26:19.556Z,163117.81
2018-04-08T19:28:47.157Z,163114.53
2018-04-08T19:31:14.710Z,163111.88
2018-04-08T19:33:42.265Z,163186.83
2018-04-08T19:36:09.843Z,163284.67
2018-04-08T19:38:37.690Z,163354.27
2018-04-08T19:41:05.290Z,163362.81
2018-04-08T19:43:32.836Z,163329.31
2018-04-08T19:46:00.425Z,163273.50
2018-04-08T19:48:27.962Z,163210.47
2018-04-08T19:50:55.953Z,163142.81
2018-04-08T19:53:23.616Z,163113.89
2018-04-08T19:55:51.151Z,163131.59
2018-04-08T19:58:18.761Z,163142.16
2018-04-08T20:00:46.309Z,163130.94
2018-04-08T20:03:13.866Z,163179.58
2018-04-08T20:05:41.436Z,163108.61
2018-04-08T20:08:08.967Z,163044.28
2018-04-08T20:10:36.578Z,163115.84
2018-04-08T20:13:04.115Z,163163.19
2018-04-08T20:15:31.662Z,163179.58
2018-04-08T20:17:59.231Z,163224.91
2018-04-08T20:20:26.802Z,163226.22
2018-04-08T20:22:54.405Z,163257.05
2018-04-08T20:25:21.954Z,163261.69
2018-04-08T20:27:49.508Z,163265.61
2018-04-08T20:30:17.083Z,163254.44
2018-04-08T20:32:44.635Z,163250.52
2018-04-08T20:35:12.244Z,163209.77
2018-04-08T20:37:39.793Z,163207.16
2018-04-08T20:40:07.351Z,163217.00
2018-04-08T20:42:34.951Z,163187.47
2018-04-08T20:45:02.507Z,163148.03
2018-04-08T20:47:30.060Z,163158.55
2018-04-08T20:49:57.640Z,163118.47
2018-04-08T20:52:25.201Z,163095.48
2018-04-08T20:54:53.262Z,163055.45
2018-04-08T20:57:20.822Z,163039.70
2018-04-08T20:59:48.466Z,163010.14
2018-04-08T21:02:16.037Z,162957.64
2018-04-08T21:04:43.603Z,162935.97
2018-04-08T21:07:11.143Z,162911.69
2018-04-08T21:09:38.708Z,162899.87
2018-04-08T21:14:04.387Z,162854.53
2018-04-08T21:16:31.946Z,162836.84
2018-04-08T21:18:59.518Z,162808.66
2018-04-08T21:21:27.066Z,162793.52
2018-04-08T21:23:55.063Z,162791.56
2018-04-08T21:26:22.612Z,162732.52
2018-04-08T21:28:50.151Z,162735.83
2018-04-08T21:31:17.721Z,162664.98
2018-04-08T21:33:45.278Z,162686.63
2018-04-08T21:36:12.853Z,162707.59
2018-04-08T21:38:40.405Z,162683.97
2018-04-08T21:41:08.009Z,162657.75
2018-04-08T21:43:35.564Z,162625.64
2018-04-08T21:46:03.103Z,162632.83
2018-04-08T21:48:30.704Z,162615.14
2018-04-08T21:50:58.264Z,162592.19
2018-04-08T21:53:25.814Z,162580.38
2018-04-08T21:55:53.411Z,162568.58
2018-04-08T21:58:20.981Z,162562.69
2018-04-08T22:00:48.550Z,162565.97
2018-04-08T22:03:16.110Z,162559.33
2018-04-08T22:05:43.708Z,162555.41
2018-04-08T22:08:11.267Z,162527.89
2018-04-08T22:10:38.803Z,162539.03
2018-04-08T22:13:06.380Z,162517.39
2018-04-08T22:15:33.963Z,162501.67
2018-04-08T22:18:01.550Z,162476.06
2018-04-08T22:20:29.159Z,162468.22
2018-04-08T22:22:56.723Z,162441.36
2018-04-08T22:25:24.280Z,162451.81
2018-04-08T22:27:51.844Z,162430.86
2018-04-08T22:30:19.399Z,162419.72
2018-04-08T22:32:47.011Z,162392.20
2018-04-08T22:35:15.492Z,162400.69
2018-04-08T22:37:43.053Z,162398.72
2018-04-08T22:40:10.678Z,162384.31
2018-04-08T22:42:38.244Z,162377.09
2018-04-08T22:45:05.805Z,162364.64
2018-04-08T22:47:33.420Z,162332.55
2018-04-08T22:50:00.972Z,162339.73
2018-04-08T22:52:28.536Z,162335.17
2018-04-08T22:54:56.661Z,162322.06
2018-04-08T22:57:24.248Z,162258.52
2018-04-08T22:59:51.901Z,162275.53
2018-04-08T23:02:19.447Z,162251.28
2018-04-08T23:04:47.001Z,162200.14
2018-04-08T23:07:14.571Z,162206.66
2018-04-08T23:09:42.137Z,162237.48
2018-04-08T23:12:09.731Z,162219.11
2018-04-08T23:14:37.276Z,162213.89
2018-04-08T23:17:04.828Z,162220.41
2018-04-08T23:19:32.431Z,162187.05
2018-04-08T23:21:59.972Z,162142.48
2018-04-08T23:24:27.520Z,162092.06
2018-04-08T23:26:55.082Z,162107.75
2018-04-08T23:29:22.666Z,162090.75
2018-04-08T23:31:50.220Z,162115.64
2018-04-08T23:34:17.783Z,162120.20
2018-04-08T23:36:45.355Z,162065.22
2018-04-08T23:39:12.928Z,162123.52
2018-04-08T23:41:40.909Z,162084.17
2018-04-08T23:44:08.476Z,162104.50
2018-04-08T23:46:36.063Z,162136.61
2018-04-08T23:49:03.660Z,162077.66
2018-04-08T23:51:31.213Z,162027.23
2018-04-08T23:53:58.782Z,162011.48
2018-04-08T23:56:26.360Z,162002.36
2018-04-08T23:58:53.907Z,161991.22
